createdAt,value
2019-03-04T00:01:50.999Z,99.90
2019-03-04T00:04:21.500Z,99.90
2019-03-04T00:06:51.955Z,98.70
2019-03-04T00:09:22.352Z,97.40
2019-03-04T00:11:52.757Z,98.40
2019-03-04T00:14:23.262Z,99.90
2019-03-04T00:16:53.700Z,99.90
2019-03-04T00:19:24.162Z,99.30
2019-03-04T00:21:54.551Z,99.30
2019-03-04T00:24:24.997Z,99.70
2019-03-04T00:26:55.408Z,97.90
2019-03-04T00:29:25.673Z,97.90
2019-03-04T00:31:56.101Z,98.10
2019-03-04T00:34:26.574Z,97.30
2019-03-04T00:36:57.053Z,98.20
2019-03-04T00:39:27.498Z,95.80
2019-03-04T00:41:58.029Z,96.00
2019-03-04T00:44:28.504Z,94.90
2019-03-04T00:46:58.801Z,97.70
2019-03-04T00:49:29.160Z,96.40
2019-03-04T00:51:59.710Z,96.20
2019-03-04T00:54:30.029Z,96.30
2019-03-04T00:57:00.490Z,97.20
2019-03-04T00:59:31.468Z,97.00
2019-03-04T01:02:02.030Z,96.60
2019-03-04T01:04:32.490Z,96.70
2019-03-04T01:07:02.875Z,96.80
2019-03-04T01:09:33.279Z,99.50
2019-03-04T01:12:03.669Z,97.70
2019-03-04T01:14:34.108Z,97.50
2019-03-04T01:17:04.534Z,97.70
2019-03-04T01:19:34.952Z,98.60
2019-03-04T01:22:05.262Z,97.90
2019-03-04T01:24:35.706Z,97.90
2019-03-04T01:27:06.107Z,99.20
2019-03-04T01:29:36.460Z,99.90
2019-03-04T01:32:06.789Z,99.90
2019-03-04T01:34:37.140Z,99.90
2019-03-04T01:37:07.513Z,99.90
2019-03-04T01:39:38.062Z,99.90
2019-03-04T01:42:08.537Z,99.90
2019-03-04T01:44:38.859Z,99.90
2019-03-04T01:47:09.259Z,99.90
2019-03-04T01:49:39.625Z,99.90
2019-03-04T01:52:10.045Z,99.90
2019-03-04T01:54:40.503Z,99.90
2019-03-04T01:57:10.910Z,99.90
2019-03-04T01:59:41.252Z,99.90
2019-03-04T02:02:11.669Z,99.90
2019-03-04T02:04:42.020Z,99.90
2019-03-04T02:07:12.408Z,99.90
2019-03-04T02:09:42.886Z,99.90
2019-03-04T02:12:13.317Z,99.90
2019-03-04T02:14:43.818Z,99.90
2019-03-04T02:17:14.148Z,99.90
2019-03-04T02:19:44.575Z,99.90
2019-03-04T02:22:14.943Z,99.90
2019-03-04T02:24:45.359Z,99.90
2019-03-04T02:27:15.857Z,99.90
2019-03-04T02:29:46.265Z,99.90
2019-03-04T02:32:16.711Z,99.90
2019-03-04T02:34:47.004Z,99.90
2019-03-04T02:37:17.368Z,99.90
2019-03-04T02:39:47.758Z,99.90
2019-03-04T02:42:18.212Z,99.90
2019-03-04T02:44:48.664Z,99.90
2019-03-04T02:47:19.117Z,99.90
2019-03-04T02:49:49.620Z,99.90
2019-03-04T02:52:20.082Z,99.90
2019-03-04T02:54:50.513Z,99.90
2019-03-04T02:57:20.882Z,99.90
2019-03-04T02:59:51.260Z,99.90
2019-03-04T03:02:21.612Z,99.90
2019-03-04T03:04:51.936Z,99.90
2019-03-04T03:07:22.665Z,99.90
2019-03-04T03:09:53.083Z,99.90
2019-03-04T03:12:23.539Z,99.90
2019-03-04T03:14:53.919Z,99.90
2019-03-04T03:17:24.383Z,99.90
2019-03-04T03:19:54.781Z,99.50
2019-03-04T03:22:25.305Z,98.70
2019-03-04T03:24:55.739Z,98.10
2019-03-04T03:27:26.249Z,98.50
2019-03-04T03:29:56.582Z,98.30
2019-03-04T03:32:27.042Z,98.00
2019-03-04T03:34:57.508Z,97.90
2019-03-04T03:37:28.005Z,97.60
2019-03-04T03:39:58.433Z,97.90
2019-03-04T03:42:28.931Z,97.70
2019-03-04T03:44:59.370Z,97.40
2019-03-04T03:47:29.890Z,97.80
2019-03-04T03:50:00.407Z,98.40
2019-03-04T03:52:30.910Z,98.40
2019-03-04T03:55:01.354Z,99.30
2019-03-04T03:57:31.791Z,99.90
2019-03-04T04:00:02.150Z,99.90
2019-03-04T04:02:32.442Z,99.90
2019-03-04T04:05:02.930Z,99.90
2019-03-04T04:07:33.338Z,99.90
2019-03-04T04:10:03.925Z,99.90
2019-03-04T04:12:34.431Z,99.90
2019-03-04T04:15:05.760Z,99.60
2019-03-04T04:17:36.212Z,99.90
2019-03-04T04:20:07.095Z,99.90
2019-03-04T04:22:37.541Z,99.90
2019-03-04T04:25:08.377Z,99.90
2019-03-04T04:27:38.749Z,99.90
2019-03-04T04:30:09.894Z,99.90
2019-03-04T04:32:40.349Z,99.90
2019-03-04T04:35:12.458Z,99.90
2019-03-04T04:37:42.947Z,99.90
2019-03-04T04:40:13.468Z,99.90
2019-03-04T04:42:43.996Z,99.90
2019-03-04T04:45:14.765Z,99.90
2019-03-04T04:47:45.525Z,99.90
2019-03-04T04:50:16.271Z,99.90
2019-03-04T04:52:46.674Z,99.90
2019-03-04T04:55:17.129Z,99.90
2019-03-04T04:57:47.494Z,99.90
2019-03-04T05:00:18.601Z,99.90
2019-03-04T05:02:49.049Z,99.90
2019-03-04T05:05:19.557Z,99.90
2019-03-04T05:07:50.024Z,99.90
2019-03-04T05:10:20.451Z,99.90
2019-03-04T05:12:50.862Z,99.90
2019-03-04T05:15:21.480Z,99.90
2019-03-04T05:17:51.999Z,99.90
2019-03-04T05:20:23.167Z,99.90
2019-03-04T05:22:53.667Z,99.90
2019-03-04T05:25:24.058Z,99.90
2019-03-04T05:27:54.430Z,99.90
2019-03-04T05:30:24.871Z,99.90
2019-03-04T05:32:55.389Z,99.90
2019-03-04T05:35:25.683Z,99.90
2019-03-04T05:37:56.090Z,99.90
2019-03-04T05:40:26.560Z,99.90
2019-03-04T05:42:57.011Z,99.90
2019-03-04T05:45:27.539Z,99.90
2019-03-04T05:47:57.977Z,99.90
2019-03-04T05:50:28.475Z,99.90
2019-03-04T05:53:00.067Z,99.90
2019-03-04T05:55:30.490Z,99.90
2019-03-04T05:58:00.998Z,99.90
2019-03-04T06:00:38.105Z,99.90
2019-03-04T06:03:09.374Z,99.90
2019-03-04T06:05:39.672Z,99.90
2019-03-04T06:08:10.462Z,99.90
2019-03-04T06:10:40.818Z,99.90
2019-03-04T06:13:11.233Z,99.90
2019-03-04T06:15:41.710Z,99.90
2019-03-04T06:18:12.082Z,99.90
2019-03-04T06:20:42.523Z,99.90
2019-03-04T06:23:13.013Z,99.90
2019-03-04T06:25:43.487Z,99.90
2019-03-04T06:28:13.813Z,99.90
2019-03-04T06:30:44.249Z,99.90
2019-03-04T06:33:14.598Z,99.90
2019-03-04T06:35:45.018Z,99.90
2019-03-04T06:38:15.483Z,99.10
2019-03-04T06:40:46.107Z,99.90
2019-03-04T06:43:16.536Z,99.10
2019-03-04T06:45:46.878Z,99.90
2019-03-04T06:48:17.356Z,99.90
2019-03-04T06:50:55.703Z,99.90
2019-03-04T06:53:35.679Z,99.90
2019-03-04T06:56:40.674Z,99.90
2019-03-04T06:59:48.835Z,99.90
2019-03-04T07:02:19.748Z,99.90
2019-03-04T07:05:47.884Z,99.90
2019-03-04T07:09:16.468Z,99.90
2019-03-04T07:11:54.339Z,97.70
2019-03-04T07:14:24.727Z,87.30
2019-03-04T07:16:55.352Z,75.70
2019-03-04T07:19:31.331Z,64.60
2019-03-04T07:22:01.777Z,55.80
2019-03-04T07:24:32.214Z,51.90
2019-03-04T07:27:02.642Z,53.80
2019-03-04T07:29:32.992Z,54.40
2019-03-04T07:32:03.425Z,54.30
2019-03-04T07:34:34.127Z,56.40
2019-03-04T07:37:04.688Z,57.40
2019-03-04T07:39:35.158Z,58.70
2019-03-04T07:42:05.584Z,56.70
2019-03-04T07:44:36.088Z,56.30
2019-03-04T07:47:06.720Z,56.40
2019-03-04T07:49:37.190Z,54.00
2019-03-04T07:52:07.578Z,50.20
2019-03-04T07:54:38.075Z,46.90
2019-03-04T07:57:08.506Z,46.30
2019-03-04T07:59:39.279Z,42.30
2019-03-04T08:02:09.652Z,38.50
2019-03-04T08:04:40.090Z,36.20
2019-03-04T08:07:46.137Z,32.30
2019-03-04T08:11:14.104Z,34.50
2019-03-04T08:13:54.096Z,34.30
2019-03-04T08:16:24.488Z,31.40
2019-03-04T08:18:54.863Z,31.40
2019-03-04T08:21:25.185Z,31.60
2019-03-04T08:23:55.605Z,29.20
2019-03-04T08:26:26.131Z,25.80
2019-03-04T08:28:58.663Z,22.90
2019-03-04T08:31:28.800Z,21.50
2019-03-04T08:33:59.219Z,21.00
2019-03-04T08:36:29.719Z,21.50
2019-03-04T08:39:00.120Z,22.10
2019-03-04T08:41:30.588Z,20.50
2019-03-04T08:44:00.882Z,21.40
2019-03-04T08:46:31.284Z,21.60
2019-03-04T08:49:01.774Z,22.00
2019-03-04T08:51:32.192Z,21.50
2019-03-04T08:54:02.586Z,21.40
2019-03-04T08:56:33.005Z,21.50
2019-03-04T08:59:03.481Z,22.20
2019-03-04T09:01:34.006Z,21.70
2019-03-04T09:04:04.442Z,21.60
2019-03-04T09:06:34.901Z,21.40
2019-03-04T09:09:07.789Z,21.30
2019-03-04T09:11:38.240Z,21.30
2019-03-04T09:14:08.652Z,21.80
2019-03-04T09:16:39.096Z,21.60
2019-03-04T09:19:09.506Z,22.00
2019-03-04T09:21:39.812Z,22.10
2019-03-04T09:24:10.276Z,21.40
2019-03-04T09:26:40.611Z,21.60
2019-03-04T09:29:11.036Z,21.00
2019-03-04T09:31:41.503Z,21.00
2019-03-04T09:34:11.823Z,23.50
2019-03-04T09:36:42.309Z,23.90
2019-03-04T09:39:17.118Z,23.40
2019-03-04T09:41:47.958Z,25.20
2019-03-04T09:44:18.482Z,26.80
2019-03-04T09:46:48.858Z,27.90
2019-03-04T09:49:19.209Z,27.60
2019-03-04T09:51:49.633Z,27.50
2019-03-04T09:54:19.921Z,27.30
2019-03-04T09:56:50.325Z,28.10
2019-03-04T09:59:20.728Z,28.90
2019-03-04T10:02:00.839Z,30.20
2019-03-04T10:05:03.642Z,30.20
2019-03-04T10:08:32.959Z,31.60
2019-03-04T10:12:00.264Z,31.20
2019-03-04T10:15:28.808Z,31.40
2019-03-04T10:18:58.226Z,33.00
2019-03-04T10:21:57.770Z,33.20
2019-03-04T10:25:28.761Z,33.80
2019-03-04T10:29:05.558Z,35.00
2019-03-04T10:32:08.653Z,34.90
2019-03-04T10:35:36.754Z,35.10
2019-03-04T10:38:50.307Z,34.80
2019-03-04T10:42:14.798Z,33.60
2019-03-04T10:45:41.819Z,32.90
2019-03-04T10:48:12.200Z,33.10
2019-03-04T10:50:42.668Z,33.40
2019-03-04T10:53:13.111Z,33.80
2019-03-04T10:55:43.594Z,35.40
2019-03-04T10:58:13.994Z,37.30
2019-03-04T11:00:44.467Z,37.40
2019-03-04T11:03:14.942Z,38.10
2019-03-04T11:05:45.662Z,37.80
2019-03-04T11:08:16.205Z,38.90
2019-03-04T11:10:46.651Z,38.20
2019-03-04T11:13:17.007Z,38.80
2019-03-04T11:15:47.480Z,38.40
2019-03-04T11:18:17.886Z,39.20
2019-03-04T11:20:48.359Z,39.20
2019-03-04T11:23:18.767Z,39.80
2019-03-04T11:25:49.166Z,39.50
2019-03-04T11:28:19.647Z,40.40
2019-03-04T11:30:50.054Z,41.10
2019-03-04T11:33:20.474Z,42.50
2019-03-04T11:35:50.780Z,43.60
2019-03-04T11:38:53.117Z,44.50
2019-03-04T11:41:24.264Z,44.90
2019-03-04T11:43:54.625Z,44.40
2019-03-04T11:46:25.327Z,45.80
2019-03-04T11:48:55.787Z,47.50
2019-03-04T11:51:26.205Z,49.10
2019-03-04T11:53:56.660Z,50.00
2019-03-04T11:56:27.121Z,50.80
2019-03-04T11:58:57.534Z,51.40
2019-03-04T12:01:41.582Z,52.20
2019-03-04T12:04:12.036Z,53.00
2019-03-04T12:06:43.227Z,53.50
2019-03-04T12:09:16.128Z,53.60
2019-03-04T12:11:46.612Z,52.40
2019-03-04T12:14:16.943Z,52.30
2019-03-04T12:16:47.410Z,52.30
2019-03-04T12:19:17.865Z,52.60
2019-03-04T12:21:48.302Z,53.30
2019-03-04T12:24:18.669Z,53.50
2019-03-04T12:26:49.137Z,53.50
2019-03-04T12:29:19.501Z,52.90
2019-03-04T12:32:07.848Z,53.30
2019-03-04T12:34:38.226Z,52.70
2019-03-04T12:37:08.629Z,53.80
2019-03-04T12:39:39.059Z,54.40
2019-03-04T12:42:09.520Z,54.60
2019-03-04T12:44:39.966Z,53.70
2019-03-04T12:47:10.407Z,53.10
2019-03-04T12:49:40.777Z,54.30
2019-03-04T12:52:11.103Z,54.20
2019-03-04T12:54:41.588Z,53.70
2019-03-04T12:57:12.074Z,53.90
2019-03-04T12:59:42.585Z,54.10
2019-03-04T13:02:12.960Z,54.40
2019-03-04T13:04:43.423Z,54.60
2019-03-04T13:07:13.886Z,55.10
2019-03-04T13:09:44.309Z,54.60
2019-03-04T13:12:14.803Z,54.60
2019-03-04T13:14:45.263Z,55.10
2019-03-04T13:17:15.706Z,55.10
2019-03-04T13:19:46.124Z,55.20
2019-03-04T13:22:16.430Z,55.90
2019-03-04T13:24:46.841Z,56.70
2019-03-04T13:27:23.825Z,57.20
2019-03-04T13:29:49.331Z,57.20
2019-03-04T13:32:19.782Z,56.90
2019-03-04T13:34:50.217Z,56.90
2019-03-04T13:37:20.741Z,56.90
2019-03-04T13:39:51.097Z,56.60
2019-03-04T13:42:21.531Z,56.20
2019-03-04T13:44:51.973Z,56.70
2019-03-04T13:47:22.436Z,56.60
2019-03-04T13:49:52.747Z,56.60
2019-03-04T13:52:23.173Z,56.60
2019-03-04T13:54:53.496Z,56.00
2019-03-04T13:57:23.830Z,57.00
2019-03-04T13:59:54.291Z,57.20
2019-03-04T14:02:24.706Z,56.90
2019-03-04T14:04:55.086Z,57.30
2019-03-04T14:07:25.473Z,57.80
2019-03-04T14:09:55.921Z,57.60
2019-03-04T14:12:26.385Z,57.90
2019-03-04T14:14:56.808Z,57.50
2019-03-04T14:17:27.268Z,57.50
2019-03-04T14:19:57.627Z,58.40
2019-03-04T14:22:28.019Z,58.70
2019-03-04T14:24:58.459Z,58.90
2019-03-04T14:27:28.877Z,59.30
2019-03-04T14:29:59.354Z,59.50
2019-03-04T14:32:29.687Z,59.70
2019-03-04T14:35:00.007Z,60.20
2019-03-04T14:37:30.460Z,60.70
2019-03-04T14:40:00.915Z,61.00
2019-03-04T14:42:31.304Z,60.90
2019-03-04T14:45:01.761Z,60.80
2019-03-04T14:47:32.163Z,61.90
2019-03-04T14:50:09.459Z,62.30
2019-03-04T14:52:34.790Z,62.30
2019-03-04T14:55:07.052Z,63.10
2019-03-04T14:57:37.362Z,63.70
2019-03-04T15:00:13.892Z,63.80
2019-03-04T15:02:44.368Z,63.80
2019-03-04T15:05:14.624Z,64.30
2019-03-04T15:07:45.035Z,64.40
2019-03-04T15:10:15.441Z,65.60
2019-03-04T15:12:45.760Z,67.00
2019-03-04T15:15:18.365Z,67.50
2019-03-04T15:17:48.831Z,67.70
2019-03-04T15:20:21.482Z,68.00
2019-03-04T15:22:51.916Z,68.80
2019-03-04T15:25:30.740Z,69.40
2019-03-04T15:28:16.185Z,69.70
2019-03-04T15:30:48.630Z,70.60
2019-03-04T15:33:19.282Z,71.30
2019-03-04T15:35:49.767Z,72.20
2019-03-04T15:38:20.372Z,73.80
2019-03-04T15:40:50.873Z,73.70
2019-03-04T15:43:21.699Z,74.00
2019-03-04T15:45:53.060Z,74.30
2019-03-04T15:48:25.744Z,74.50
2019-03-04T15:50:56.092Z,74.90
2019-03-04T15:53:26.647Z,74.90
2019-03-04T15:55:57.023Z,75.00
2019-03-04T15:58:27.396Z,74.90
2019-03-04T16:00:57.803Z,75.70
2019-03-04T16:03:28.278Z,75.80
2019-03-04T16:05:58.721Z,75.00
2019-03-04T16:08:29.158Z,74.10
2019-03-04T16:10:59.814Z,73.20
2019-03-04T16:13:30.152Z,73.10
2019-03-04T16:16:00.576Z,72.30
2019-03-04T16:18:31.006Z,70.60
2019-03-04T16:21:01.431Z,69.30
2019-03-04T16:23:31.872Z,70.00
2019-03-04T16:26:09.935Z,68.00
2019-03-04T16:28:40.611Z,66.90
2019-03-04T16:31:10.987Z,65.40
2019-03-04T16:33:41.380Z,64.50
2019-03-04T16:36:11.634Z,64.10
2019-03-04T16:38:42.043Z,64.50
2019-03-04T16:41:12.557Z,63.60
2019-03-04T16:43:43.024Z,63.60
2019-03-04T16:46:13.632Z,62.90
2019-03-04T16:48:44.060Z,62.00
2019-03-04T16:51:14.507Z,62.10
2019-03-04T16:53:45.002Z,61.30
2019-03-04T16:56:15.439Z,60.90
2019-03-04T16:58:45.936Z,61.00
2019-03-04T17:01:16.433Z,61.10
2019-03-04T17:03:46.838Z,61.10
2019-03-04T17:06:17.453Z,61.10
2019-03-04T17:08:47.944Z,61.00
2019-03-04T17:11:18.368Z,61.10
2019-03-04T17:13:48.719Z,61.30
2019-03-04T17:16:19.195Z,61.60
2019-03-04T17:18:49.531Z,62.00
2019-03-04T17:21:20.008Z,62.40
2019-03-04T17:23:50.388Z,62.70
2019-03-04T17:26:20.931Z,62.90
2019-03-04T17:28:51.431Z,63.30
2019-03-04T17:31:21.886Z,63.60
2019-03-04T17:33:52.325Z,63.70
2019-03-04T17:36:22.759Z,63.90
2019-03-04T17:38:53.091Z,64.00
2019-03-04T17:41:23.542Z,63.50
2019-03-04T17:43:53.996Z,63.20
2019-03-04T17:46:24.419Z,63.20
2019-03-04T17:48:55.088Z,61.70
2019-03-04T17:51:25.561Z,61.30
2019-03-04T17:53:55.948Z,61.20
2019-03-04T17:56:26.396Z,60.60
2019-03-04T17:58:56.729Z,60.20
2019-03-04T18:01:27.185Z,59.10
2019-03-04T18:03:57.991Z,58.70
2019-03-04T18:06:28.408Z,58.20
2019-03-04T18:08:58.701Z,58.10
2019-03-04T18:11:29.168Z,58.00
2019-03-04T18:13:59.486Z,58.10
2019-03-04T18:16:29.946Z,57.60
2019-03-04T18:19:00.404Z,57.60
2019-03-04T18:21:30.753Z,57.70
2019-03-04T18:24:01.281Z,57.80
2019-03-04T18:26:54.288Z,58.20
2019-03-04T18:30:00.874Z,57.80
2019-03-04T18:33:23.078Z,58.10
2019-03-04T18:36:42.873Z,58.20
2019-03-04T18:40:16.119Z,58.20
2019-03-04T18:43:12.868Z,58.20
2019-03-04T18:47:01.673Z,59.40
2019-03-04T18:49:32.123Z,61.40
2019-03-04T18:52:02.606Z,66.40
2019-03-04T18:54:33.051Z,71.40
2019-03-04T18:57:03.452Z,75.20
2019-03-04T18:59:33.932Z,79.10
2019-03-04T19:02:04.349Z,92.60
2019-03-04T19:04:34.752Z,97.80
2019-03-04T19:07:05.168Z,99.90
2019-03-04T19:09:35.616Z,99.90
2019-03-04T19:12:06.000Z,99.90
2019-03-04T19:14:36.428Z,99.90
2019-03-04T19:17:07.926Z,99.90
2019-03-04T19:19:38.344Z,99.90
2019-03-04T19:22:08.759Z,99.90
2019-03-04T19:24:39.152Z,99.90
2019-03-04T19:27:09.604Z,99.90
2019-03-04T19:29:39.992Z,99.90
2019-03-04T19:32:10.270Z,99.90
2019-03-04T19:34:40.749Z,99.90
2019-03-04T19:37:12.450Z,99.90
2019-03-04T19:39:42.874Z,99.90
2019-03-04T19:42:13.449Z,99.90
2019-03-04T19:44:44.392Z,99.90
2019-03-04T19:47:14.759Z,99.90
2019-03-04T19:49:45.383Z,99.90
2019-03-04T19:52:15.895Z,99.90
2019-03-04T19:54:46.468Z,99.90
2019-03-04T19:57:16.866Z,99.90
2019-03-04T19:59:47.219Z,99.90
2019-03-04T20:02:18.751Z,99.90
2019-03-04T20:04:49.450Z,99.90
2019-03-04T20:07:19.930Z,99.90
2019-03-04T20:09:50.564Z,99.90
2019-03-04T20:12:21.068Z,99.90
2019-03-04T20:14:51.559Z,99.90
2019-03-04T20:17:22.119Z,99.90
2019-03-04T20:19:52.676Z,99.90
2019-03-04T20:22:23.201Z,99.90
2019-03-04T20:24:53.520Z,99.90
2019-03-04T20:27:25.601Z,99.90
2019-03-04T20:29:56.103Z,99.90
2019-03-04T20:32:26.718Z,99.90
2019-03-04T20:34:57.122Z,99.90
2019-03-04T20:37:28.857Z,99.90
2019-03-04T20:39:59.359Z,99.90
2019-03-04T20:42:29.956Z,99.90
2019-03-04T20:45:00.420Z,99.90
2019-03-04T20:47:30.779Z,99.90
2019-03-04T20:50:01.150Z,99.90
2019-03-04T20:52:31.717Z,99.90
2019-03-04T20:55:03.158Z,99.90
2019-03-04T20:57:33.532Z,99.90
2019-03-04T21:00:04.311Z,99.90
2019-03-04T21:02:34.720Z,99.90
2019-03-04T21:05:05.952Z,99.90
2019-03-04T21:07:36.403Z,99.90
2019-03-04T21:10:08.191Z,99.90
2019-03-04T21:12:38.596Z,99.90
2019-03-04T21:15:10.017Z,99.90
2019-03-04T21:17:40.427Z,99.90
2019-03-04T21:20:11.523Z,99.90
2019-03-04T21:22:41.871Z,99.90
2019-03-04T21:25:39.840Z,99.90
2019-03-04T21:28:16.712Z,99.90
2019-03-04T21:31:44.635Z,99.90
2019-03-04T21:35:06.646Z,99.90
2019-03-04T21:37:41.879Z,99.90
2019-03-04T21:40:41.596Z,99.90
2019-03-04T21:43:41.224Z,99.90
2019-03-04T21:47:01.442Z,99.90
2019-03-04T21:49:36.610Z,99.90
2019-03-04T21:53:06.037Z,99.90
2019-03-04T21:56:10.786Z,99.90
2019-03-04T21:58:41.228Z,99.90
2019-03-04T22:01:21.779Z,99.90
2019-03-04T22:03:52.497Z,99.90
2019-03-04T22:06:22.979Z,99.90
2019-03-04T22:08:53.519Z,99.90
2019-03-04T22:11:23.944Z,99.90
2019-03-04T22:13:54.396Z,99.90
2019-03-04T22:16:24.890Z,99.90
2019-03-04T22:18:55.335Z,99.90
2019-03-04T22:21:25.746Z,99.90
2019-03-04T22:23:56.130Z,99.90
2019-03-04T22:26:26.618Z,99.90
2019-03-04T22:28:57.040Z,99.90
2019-03-04T22:31:27.394Z,99.90
2019-03-04T22:33:57.933Z,99.90
2019-03-04T22:36:28.232Z,99.90
2019-03-04T22:38:58.731Z,99.90
2019-03-04T22:41:29.188Z,99.90
2019-03-04T22:43:59.514Z,99.90
2019-03-04T22:46:29.975Z,99.90
2019-03-04T22:49:00.313Z,99.90
2019-03-04T22:51:30.838Z,99.90
2019-03-04T22:54:01.207Z,99.90
2019-03-04T22:56:31.656Z,99.90
2019-03-04T22:59:02.177Z,99.90
2019-03-04T23:01:47.258Z,99.90
2019-03-04T23:04:51.338Z,99.90
2019-03-04T23:07:42.371Z,99.90
2019-03-04T23:10:48.110Z,99.90
2019-03-04T23:14:04.973Z,99.90
2019-03-04T23:16:36.254Z,99.90
2019-03-04T23:19:06.808Z,99.90
2019-03-04T23:21:37.315Z,99.90
2019-03-04T23:24:07.993Z,99.90
2019-03-04T23:26:38.520Z,99.90
2019-03-04T23:29:08.943Z,99.90
2019-03-04T23:31:39.367Z,99.90
2019-03-04T23:34:09.796Z,99.90
2019-03-04T23:36:40.211Z,99.90
2019-03-04T23:39:10.750Z,99.90
2019-03-04T23:41:41.158Z,99.90
2019-03-04T23:44:11.689Z,99.90
2019-03-04T23:46:42.168Z,99.90
2019-03-04T23:49:12.602Z,99.90
2019-03-04T23:51:43.095Z,99.90
2019-03-04T23:54:13.451Z,99.90
2019-03-04T23:56:43.883Z,99.90
2019-03-04T23:59:14.290Z,99.90
